createdAt,value
2023-04-21T00:00:43.209Z,8.70
2023-04-21T00:03:22.368Z,8.80
2023-04-21T00:05:53.020Z,8.80
2023-04-21T00:08:20.191Z,8.70
2023-04-21T00:10:50.308Z,8.60
2023-04-21T00:13:17.332Z,8.60
2023-04-21T00:15:45.301Z,8.60
2023-04-21T00:18:13.725Z,8.60
2023-04-21T00:20:43.114Z,8.70
2023-04-21T00:23:13.348Z,8.70
2023-04-21T00:25:42.556Z,8.70
2023-04-21T00:28:18.704Z,8.80
2023-04-21T00:30:48.803Z,8.70
2023-04-21T00:33:15.925Z,8.70
2023-04-21T00:35:42.862Z,8.70
2023-04-21T00:38:10.784Z,8.80
2023-04-21T00:40:38.691Z,8.70
2023-04-21T00:45:54.837Z,8.70
2023-04-21T00:48:21.729Z,8.80
2023-04-21T00:50:49.863Z,8.80
2023-04-21T00:53:19.008Z,8.80
2023-04-21T00:55:47.551Z,8.90
2023-04-21T00:58:14.621Z,8.70
2023-04-21T01:00:44.500Z,8.80
2023-04-21T01:03:11.825Z,8.70
2023-04-21T01:05:42.852Z,8.70
2023-04-21T01:08:15.837Z,8.60
2023-04-21T01:10:42.804Z,8.60
2023-04-21T01:13:09.836Z,8.60
2023-04-21T01:15:39.137Z,8.60
2023-04-21T01:18:06.133Z,8.60
2023-04-21T01:20:33.182Z,8.70
2023-04-21T01:23:01.976Z,8.80
2023-04-21T01:25:29.232Z,8.80
2023-04-21T01:27:57.752Z,8.70
2023-04-21T01:30:26.909Z,8.80
2023-04-21T01:32:53.943Z,8.70
2023-04-21T01:35:21.337Z,8.50
2023-04-21T01:37:50.635Z,8.50
2023-04-21T01:40:20.164Z,8.40
2023-04-21T01:42:47.852Z,8.50
2023-04-21T01:45:15.105Z,8.60
2023-04-21T01:47:43.087Z,8.50
2023-04-21T01:50:11.152Z,8.60
2023-04-21T01:52:38.067Z,8.50
2023-04-21T01:55:05.465Z,8.40
2023-04-21T01:57:35.527Z,8.50
2023-04-21T02:00:04.123Z,8.50
2023-04-21T02:02:44.208Z,8.40
2023-04-21T02:05:13.549Z,8.50
2023-04-21T02:07:41.632Z,8.40
2023-04-21T02:10:11.092Z,8.50
2023-04-21T02:12:39.749Z,8.50
2023-04-21T02:15:07.566Z,8.40
2023-04-21T02:17:34.638Z,8.50
2023-04-21T02:20:03.964Z,8.60
2023-04-21T02:22:32.448Z,8.50
2023-04-21T02:24:59.455Z,8.50
2023-04-21T02:27:27.599Z,8.50
2023-04-21T02:29:54.527Z,8.40
2023-04-21T02:32:28.100Z,8.50
2023-04-21T02:34:59.062Z,8.60
2023-04-21T02:37:26.751Z,8.50
2023-04-21T02:39:54.100Z,8.60
2023-04-21T02:42:21.237Z,8.60
2023-04-21T02:44:49.162Z,8.60
2023-04-21T02:47:16.895Z,8.50
2023-04-21T02:49:45.064Z,8.60
2023-04-21T02:52:13.809Z,8.60
2023-04-21T02:54:42.889Z,8.60
2023-04-21T02:57:10.944Z,8.60
2023-04-21T02:59:37.862Z,8.60
2023-04-21T03:02:04.885Z,8.60
2023-04-21T03:04:34.385Z,8.60
2023-04-21T03:07:01.777Z,8.60
2023-04-21T03:09:30.017Z,8.60
2023-04-21T03:11:57.050Z,8.60
2023-04-21T03:14:24.023Z,8.50
2023-04-21T03:16:51.658Z,8.60
2023-04-21T03:19:18.830Z,8.70
2023-04-21T03:21:48.262Z,8.70
2023-04-21T03:24:15.563Z,8.60
2023-04-21T03:26:43.604Z,8.60
2023-04-21T03:29:11.438Z,8.60
2023-04-21T03:31:38.613Z,8.60
2023-04-21T03:34:06.814Z,8.60
2023-04-21T03:36:34.304Z,8.50
2023-04-21T03:39:12.782Z,8.50
2023-04-21T03:41:49.375Z,8.70
2023-04-21T03:44:18.939Z,8.60
2023-04-21T03:46:45.947Z,8.50
2023-04-21T03:49:14.979Z,8.60
2023-04-21T03:51:41.939Z,8.60
2023-04-21T03:54:08.879Z,8.60
2023-04-21T03:56:36.869Z,8.60
2023-04-21T03:59:03.883Z,8.80
2023-04-21T04:01:31.193Z,8.70
2023-04-21T04:03:59.290Z,8.60
2023-04-21T04:06:26.607Z,8.60
2023-04-21T04:08:53.546Z,8.60
2023-04-21T04:11:22.457Z,8.60
2023-04-21T04:13:49.592Z,8.50
2023-04-21T04:16:18.336Z,8.40
2023-04-21T04:18:45.922Z,8.40
2023-04-21T04:21:13.848Z,8.40
2023-04-21T04:23:43.728Z,8.40
2023-04-21T04:26:11.500Z,8.30
2023-04-21T04:28:38.886Z,8.20
2023-04-21T04:31:06.328Z,8.20
2023-04-21T04:33:33.850Z,8.30
2023-04-21T04:36:00.843Z,8.30
2023-04-21T04:38:28.721Z,8.40
2023-04-21T04:40:58.097Z,8.40
2023-04-21T04:43:27.155Z,8.50
2023-04-21T04:45:54.112Z,8.50
2023-04-21T04:48:21.961Z,8.50
2023-04-21T04:50:48.873Z,8.50
2023-04-21T04:53:16.974Z,8.50
2023-04-21T04:55:47.733Z,8.50
2023-04-21T04:58:15.924Z,8.60
2023-04-21T05:00:42.971Z,8.50
2023-04-21T05:03:10.059Z,8.40
2023-04-21T05:05:37.294Z,8.40
2023-04-21T05:08:04.708Z,8.40
2023-04-21T05:10:33.864Z,8.40
2023-04-21T05:13:01.795Z,8.60
2023-04-21T05:15:29.757Z,8.40
2023-04-21T05:17:56.728Z,8.40
2023-04-21T05:20:23.860Z,8.40
2023-04-21T05:22:53.032Z,8.50
2023-04-21T05:25:20.896Z,8.50
2023-04-21T05:27:48.297Z,8.60
2023-04-21T05:30:15.238Z,8.60
2023-04-21T05:32:42.173Z,8.80
2023-04-21T05:35:09.238Z,8.80
2023-04-21T05:37:36.316Z,8.80
2023-04-21T05:40:03.356Z,8.80
2023-04-21T05:42:30.342Z,8.70
2023-04-21T05:44:58.082Z,8.60
2023-04-21T05:47:27.667Z,8.40
2023-04-21T05:49:54.584Z,8.40
2023-04-21T05:52:21.921Z,8.60
2023-04-21T05:54:49.131Z,8.50
2023-04-21T05:57:18.183Z,8.40
2023-04-21T05:59:45.073Z,8.40
2023-04-21T06:02:12.783Z,8.40
2023-04-21T06:04:41.179Z,8.40
2023-04-21T06:07:13.807Z,8.40
2023-04-21T06:09:45.156Z,8.50
2023-04-21T06:12:18.048Z,8.50
2023-04-21T06:14:51.716Z,8.50
2023-04-21T06:17:19.126Z,8.50
2023-04-21T06:19:46.193Z,8.60
2023-04-21T06:22:15.685Z,8.60
2023-04-21T06:24:43.036Z,8.60
2023-04-21T06:27:12.774Z,8.60
2023-04-21T06:29:42.707Z,8.60
2023-04-21T06:32:13.137Z,8.60
2023-04-21T06:34:44.433Z,8.70
2023-04-21T06:37:12.377Z,8.70
2023-04-21T06:39:39.596Z,8.80
2023-04-21T06:42:06.894Z,8.90
2023-04-21T06:44:44.061Z,8.80
2023-04-21T06:47:11.437Z,8.80
2023-04-21T06:49:38.531Z,8.70
2023-04-21T06:52:05.935Z,8.80
2023-04-21T06:54:33.079Z,8.90
2023-04-21T06:57:01.073Z,9.10
2023-04-21T06:59:28.088Z,9.20
2023-04-21T07:01:55.110Z,9.30
2023-04-21T07:04:23.056Z,9.30
2023-04-21T07:06:50.088Z,9.40
2023-04-21T07:09:21.296Z,9.50
2023-04-21T07:11:48.395Z,9.50
2023-04-21T07:14:18.400Z,9.60
2023-04-21T07:16:45.647Z,9.70
2023-04-21T07:19:16.360Z,9.70
2023-04-21T07:21:52.002Z,9.60
2023-04-21T07:24:23.854Z,9.50
2023-04-21T07:26:51.834Z,9.60
2023-04-21T07:29:22.756Z,9.50
2023-04-21T07:31:57.718Z,9.60
2023-04-21T07:34:26.094Z,9.50
2023-04-21T07:36:57.800Z,9.40
2023-04-21T07:39:25.435Z,9.40
2023-04-21T07:41:55.897Z,9.50
2023-04-21T07:44:23.966Z,9.70
2023-04-21T07:46:52.170Z,9.90
2023-04-21T07:49:19.498Z,10.00
2023-04-21T07:51:46.936Z,10.20
2023-04-21T07:54:13.799Z,10.20
2023-04-21T07:56:41.254Z,10.30
2023-04-21T07:59:08.270Z,10.30
2023-04-21T08:01:36.682Z,10.50
2023-04-21T08:04:03.922Z,10.60
2023-04-21T08:06:33.361Z,10.80
2023-04-21T08:09:01.601Z,11.00
2023-04-21T08:11:28.666Z,10.80
2023-04-21T08:13:58.128Z,10.50
2023-04-21T08:16:25.092Z,10.70
2023-04-21T08:18:53.114Z,10.80
2023-04-21T08:21:20.487Z,11.10
2023-04-21T08:23:47.859Z,11.20
2023-04-21T08:26:17.308Z,11.50
2023-04-21T08:28:44.350Z,11.80
2023-04-21T08:31:11.387Z,12.10
2023-04-21T08:33:53.945Z,12.00
2023-04-21T08:36:32.032Z,12.00
2023-04-21T08:39:00.035Z,12.00
2023-04-21T08:41:31.861Z,12.20
2023-04-21T08:43:59.251Z,12.40
2023-04-21T08:46:34.876Z,12.60
2023-04-21T08:49:05.100Z,12.50
2023-04-21T08:51:34.066Z,12.40
2023-04-21T08:54:06.345Z,12.60
2023-04-21T08:56:35.485Z,12.60
2023-04-21T08:59:02.429Z,12.70
2023-04-21T09:01:30.666Z,13.00
2023-04-21T09:04:18.046Z,12.90
2023-04-21T09:06:46.631Z,12.90
2023-04-21T09:09:15.036Z,12.70
2023-04-21T09:11:42.194Z,12.70
2023-04-21T09:14:09.838Z,12.80
2023-04-21T09:16:38.768Z,13.00
2023-04-21T09:19:15.411Z,13.10
2023-04-21T09:21:44.703Z,13.20
2023-04-21T09:24:13.947Z,13.20
2023-04-21T09:26:44.104Z,13.20
2023-04-21T09:29:11.262Z,13.40
2023-04-21T09:31:38.374Z,13.50
2023-04-21T09:34:20.768Z,13.60
2023-04-21T09:36:49.108Z,13.60
2023-04-21T09:41:47.398Z,13.30
2023-04-21T09:44:14.580Z,13.50
2023-04-21T09:46:46.127Z,13.70
2023-04-21T09:49:16.637Z,13.80
2023-04-21T09:52:10.382Z,13.80
2023-04-21T09:54:35.302Z,14.00
2023-04-21T09:57:04.982Z,14.00
2023-04-21T09:59:43.736Z,14.10
2023-04-21T10:02:13.470Z,14.30
2023-04-21T10:04:43.904Z,14.40
2023-04-21T10:07:12.675Z,14.30
2023-04-21T10:09:49.072Z,14.50
2023-04-21T10:12:30.121Z,14.60
2023-04-21T10:14:58.106Z,14.60
2023-04-21T10:17:27.025Z,14.60
2023-04-21T10:19:58.443Z,14.70
2023-04-21T10:22:33.441Z,14.70
2023-04-21T10:25:02.835Z,14.50
2023-04-21T10:27:40.729Z,14.40
2023-04-21T10:30:26.714Z,14.60
2023-04-21T10:33:06.316Z,14.80
2023-04-21T10:36:00.558Z,14.80
2023-04-21T10:38:42.294Z,14.90
2023-04-21T10:41:29.180Z,15.00
2023-04-21T10:43:59.958Z,14.90
2023-04-21T10:46:41.333Z,14.90
2023-04-21T10:49:12.313Z,15.10
2023-04-21T10:52:02.666Z,15.20
2023-04-21T10:55:04.392Z,15.30
2023-04-21T10:57:34.195Z,15.40
2023-04-21T11:00:07.283Z,15.40
2023-04-21T11:02:38.970Z,15.50
2023-04-21T11:05:14.288Z,15.60
2023-04-21T11:07:41.705Z,15.70
2023-04-21T11:10:11.414Z,15.90
2023-04-21T11:12:42.212Z,16.00
2023-04-21T11:15:11.666Z,16.20
2023-04-21T11:17:40.020Z,16.60
2023-04-21T11:20:07.841Z,16.70
2023-04-21T11:22:38.192Z,17.10
2023-04-21T11:25:05.730Z,17.50
2023-04-21T11:27:33.874Z,17.90
2023-04-21T11:30:04.195Z,18.20
2023-04-21T11:32:31.230Z,18.60
2023-04-21T11:34:59.244Z,18.80
2023-04-21T11:37:27.748Z,19.00
2023-04-21T11:39:59.605Z,19.70
2023-04-21T11:42:27.375Z,20.40
2023-04-21T11:44:56.828Z,20.40
2023-04-21T11:47:28.353Z,20.20
2023-04-21T11:49:58.835Z,19.90
2023-04-21T11:52:29.842Z,20.30
2023-04-21T11:55:06.828Z,20.60
2023-04-21T11:57:36.668Z,20.90
2023-04-21T12:00:11.943Z,21.10
2023-04-21T12:02:39.707Z,21.30
2023-04-21T12:05:11.945Z,21.70
2023-04-21T12:07:42.858Z,21.50
2023-04-21T12:10:17.959Z,21.40
2023-04-21T12:12:46.468Z,21.00
2023-04-21T12:15:22.592Z,21.00
2023-04-21T12:17:53.428Z,21.10
2023-04-21T12:20:23.518Z,20.90
2023-04-21T12:22:51.082Z,21.40
2023-04-21T12:25:19.072Z,21.30
2023-04-21T12:27:53.153Z,21.60
2023-04-21T12:30:21.746Z,20.60
2023-04-21T12:32:52.083Z,20.80
2023-04-21T12:35:19.352Z,21.40
2023-04-21T12:37:47.288Z,21.60
2023-04-21T12:40:14.169Z,21.50
2023-04-21T12:42:45.372Z,21.10
2023-04-21T12:45:13.528Z,21.20
2023-04-21T12:47:43.511Z,20.90
2023-04-21T12:50:12.706Z,21.20
2023-04-21T12:52:39.808Z,21.40
2023-04-21T12:55:07.512Z,21.80
2023-04-21T12:57:34.873Z,22.10
2023-04-21T13:00:02.027Z,22.00
2023-04-21T13:02:30.993Z,21.30
2023-04-21T13:05:01.440Z,21.80
2023-04-21T13:07:31.486Z,22.00
2023-04-21T13:09:59.141Z,21.90
2023-04-21T13:12:26.210Z,22.20
2023-04-21T13:14:53.183Z,22.30
2023-04-21T13:17:20.684Z,22.40
2023-04-21T13:19:48.978Z,22.40
2023-04-21T13:22:17.706Z,22.60
2023-04-21T13:24:46.181Z,22.60
2023-04-21T13:27:16.345Z,22.00
2023-04-21T13:29:43.683Z,22.10
2023-04-21T13:32:11.085Z,22.30
2023-04-21T13:34:38.331Z,22.10
2023-04-21T13:37:06.031Z,22.20
2023-04-21T13:39:34.681Z,22.10
2023-04-21T13:42:05.853Z,22.20
2023-04-21T13:44:33.321Z,22.50
2023-04-21T13:47:00.892Z,22.80
2023-04-21T13:49:28.237Z,22.90
2023-04-21T13:51:55.432Z,22.50
2023-04-21T13:54:22.676Z,22.20
2023-04-21T13:56:51.437Z,21.90
2023-04-21T13:59:21.365Z,21.60
2023-04-21T14:01:48.601Z,21.60
2023-04-21T14:04:15.913Z,21.70
2023-04-21T14:06:43.110Z,21.90
2023-04-21T14:09:12.283Z,21.80
2023-04-21T14:12:07.010Z,21.80
2023-04-21T14:15:00.892Z,22.10
2023-04-21T14:17:32.494Z,22.30
2023-04-21T14:20:00.004Z,22.50
2023-04-21T14:22:28.158Z,21.70
2023-04-21T14:24:56.254Z,21.20
2023-04-21T14:27:24.293Z,20.90
2023-04-21T14:29:51.527Z,20.60
2023-04-21T14:32:20.714Z,20.20
2023-04-21T14:39:08.048Z,19.90
2023-04-21T14:41:35.089Z,19.70
2023-04-21T14:44:03.914Z,19.70
2023-04-21T14:46:34.284Z,19.40
2023-04-21T14:49:01.483Z,19.40
2023-04-21T14:51:28.556Z,19.40
2023-04-21T14:53:55.940Z,19.30
2023-04-21T14:56:23.087Z,19.20
2023-04-21T14:58:50.341Z,19.20
2023-04-21T15:01:19.610Z,19.10
2023-04-21T15:04:11.859Z,19.10
2023-04-21T15:06:40.083Z,19.40
2023-04-21T15:09:07.289Z,19.40
2023-04-21T15:11:34.601Z,19.20
2023-04-21T15:14:01.672Z,19.00
2023-04-21T15:16:28.738Z,18.90
2023-04-21T15:18:55.793Z,18.80
2023-04-21T15:21:24.121Z,18.70
2023-04-21T15:23:53.093Z,18.80
2023-04-21T15:26:22.865Z,18.80
2023-04-21T15:28:52.026Z,18.80
2023-04-21T15:31:20.526Z,18.80
2023-04-21T15:33:48.588Z,18.70
2023-04-21T15:36:15.705Z,18.60
2023-04-21T15:38:43.292Z,18.50
2023-04-21T15:41:11.216Z,18.60
2023-04-21T15:43:39.430Z,18.70
2023-04-21T15:46:13.183Z,18.70
2023-04-21T15:48:41.620Z,18.60
2023-04-21T15:51:13.290Z,18.40
2023-04-21T15:53:57.340Z,18.50
2023-04-21T15:56:24.698Z,18.60
2023-04-21T15:58:51.956Z,18.50
2023-04-21T16:01:19.898Z,18.30
2023-04-21T16:03:49.482Z,18.30
2023-04-21T16:06:19.000Z,18.30
2023-04-21T16:08:46.073Z,18.30
2023-04-21T16:11:14.481Z,18.20
2023-04-21T16:13:41.696Z,18.20
2023-04-21T16:16:09.392Z,17.80
2023-04-21T16:18:36.687Z,17.80
2023-04-21T16:21:06.408Z,17.70
2023-04-21T16:23:33.492Z,17.80
2023-04-21T16:26:02.517Z,17.90
2023-04-21T16:28:29.528Z,17.90
2023-04-21T16:30:56.656Z,17.50
2023-04-21T16:33:39.380Z,17.20
2023-04-21T16:36:19.402Z,17.30
2023-04-21T16:38:48.366Z,17.20
2023-04-21T16:41:20.859Z,17.20
2023-04-21T16:43:52.815Z,17.00
2023-04-21T16:46:28.881Z,16.90
2023-04-21T16:48:58.122Z,16.80
2023-04-21T16:51:35.420Z,16.70
2023-04-21T16:54:06.657Z,16.70
2023-04-21T16:56:35.467Z,16.50
2023-04-21T16:59:02.954Z,16.40
2023-04-21T17:01:30.049Z,16.30
2023-04-21T17:04:02.319Z,16.30
2023-04-21T17:06:29.730Z,16.30
2023-04-21T17:08:59.840Z,16.30
2023-04-21T17:11:28.732Z,16.30
2023-04-21T17:13:58.944Z,16.20
2023-04-21T17:16:39.965Z,16.10
2023-04-21T17:19:09.210Z,15.90
2023-04-21T17:21:37.284Z,15.60
2023-04-21T17:24:10.810Z,15.60
2023-04-21T17:26:37.809Z,15.50
2023-04-21T17:29:05.312Z,15.30
2023-04-21T17:32:03.328Z,15.10
2023-04-21T17:34:44.120Z,15.20
2023-04-21T17:37:19.518Z,15.10
2023-04-21T17:39:48.505Z,14.50
2023-04-21T17:42:48.634Z,14.30
2023-04-21T17:45:22.994Z,14.10
2023-04-21T17:48:10.659Z,14.00
2023-04-21T17:50:41.296Z,14.00
2023-04-21T17:53:08.963Z,14.10
2023-04-21T17:55:36.012Z,13.90
2023-04-21T17:58:03.104Z,13.50
2023-04-21T18:00:34.363Z,13.00
2023-04-21T18:03:04.129Z,12.80
2023-04-21T18:05:32.365Z,12.60
2023-04-21T18:08:00.743Z,12.10
2023-04-21T18:10:29.763Z,11.70
2023-04-21T18:12:57.986Z,11.20
2023-04-21T18:15:27.684Z,11.00
2023-04-21T18:17:56.329Z,10.80
2023-04-21T18:20:23.544Z,10.60
2023-04-21T18:22:51.943Z,10.60
2023-04-21T18:25:38.356Z,10.60
2023-04-21T18:28:11.484Z,10.50
2023-04-21T18:30:40.863Z,10.60
2023-04-21T18:33:09.607Z,10.50
2023-04-21T18:35:41.732Z,10.60
2023-04-21T18:38:14.265Z,10.60
2023-04-21T18:40:41.770Z,10.70
2023-04-21T18:43:28.525Z,10.80
2023-04-21T18:45:55.733Z,10.80
2023-04-21T18:48:27.055Z,10.80
2023-04-21T18:50:55.377Z,10.90
2023-04-21T18:53:31.446Z,10.90
2023-04-21T18:56:00.438Z,10.70
2023-04-21T18:58:29.993Z,10.80
2023-04-21T19:00:59.337Z,11.00
2023-04-21T19:03:36.459Z,11.10
2023-04-21T19:06:05.160Z,11.00
2023-04-21T19:08:41.906Z,10.90
2023-04-21T19:11:13.728Z,10.80
2023-04-21T19:13:43.042Z,10.90
2023-04-21T19:16:14.261Z,11.10
2023-04-21T19:18:41.866Z,11.20
2023-04-21T19:21:17.345Z,11.30
2023-04-21T19:23:50.612Z,11.30
2023-04-21T19:29:03.256Z,10.90
2023-04-21T19:31:32.419Z,10.70
2023-04-21T19:33:59.423Z,10.60
2023-04-21T19:36:27.460Z,10.60
2023-04-21T19:38:55.452Z,10.50
2023-04-21T19:41:22.968Z,10.50
2023-04-21T19:43:50.002Z,10.50
2023-04-21T19:46:18.122Z,10.70
2023-04-21T19:48:46.413Z,10.70
2023-04-21T19:51:15.795Z,10.70
2023-04-21T19:54:12.369Z,10.50
2023-04-21T19:56:40.588Z,10.50
2023-04-21T19:59:07.907Z,10.70
2023-04-21T20:01:41.103Z,10.70
2023-04-21T20:04:11.089Z,10.70
2023-04-21T20:06:39.258Z,10.70
2023-04-21T20:09:08.509Z,10.80
2023-04-21T20:11:40.761Z,10.70
2023-04-21T20:14:13.109Z,10.70
2023-04-21T20:17:12.300Z,10.70
2023-04-21T20:19:52.747Z,10.60
2023-04-21T20:22:22.538Z,10.60
2023-04-21T20:24:52.230Z,10.50
2023-04-21T20:27:20.784Z,10.60
2023-04-21T20:29:48.605Z,10.60
2023-04-21T20:32:16.550Z,10.70
2023-04-21T20:34:45.896Z,10.60
2023-04-21T20:37:16.960Z,10.40
2023-04-21T20:39:46.880Z,10.40
2023-04-21T20:42:16.813Z,10.50
2023-04-21T20:44:43.955Z,10.60
2023-04-21T20:47:13.737Z,10.70
2023-04-21T20:49:43.662Z,10.70
2023-04-21T20:52:12.959Z,10.60
2023-04-21T20:54:39.930Z,10.70
2023-04-21T20:57:08.721Z,10.70
2023-04-21T20:59:38.047Z,10.60
2023-04-21T21:02:06.703Z,10.40
2023-04-21T21:04:34.974Z,10.30
2023-04-21T21:07:02.432Z,10.20
2023-04-21T21:09:31.613Z,10.20
2023-04-21T21:11:59.848Z,10.20
2023-04-21T21:14:27.007Z,10.10
2023-04-21T21:16:55.280Z,10.10
2023-04-21T21:19:23.080Z,10.10
2023-04-21T21:21:49.953Z,10.00
2023-04-21T21:24:17.670Z,10.00
2023-04-21T21:26:45.875Z,10.00
2023-04-21T21:29:13.289Z,9.90
2023-04-21T21:31:40.889Z,9.90
2023-04-21T21:34:08.085Z,9.90
2023-04-21T21:36:37.185Z,10.00
2023-04-21T21:39:07.747Z,10.10
2023-04-21T21:41:37.551Z,10.00
2023-04-21T21:44:04.778Z,9.80
2023-04-21T21:46:35.485Z,9.90
2023-04-21T21:49:07.035Z,10.00
2023-04-21T21:51:38.583Z,9.90
2023-04-21T21:54:08.529Z,9.70
2023-04-21T21:56:45.149Z,9.70
2023-04-21T21:59:14.518Z,9.90
2023-04-21T22:01:42.859Z,9.80
2023-04-21T22:04:12.003Z,9.60
2023-04-21T22:06:49.368Z,9.60
2023-04-21T22:09:23.380Z,9.60
2023-04-21T22:11:54.772Z,9.60
2023-04-21T22:14:33.694Z,9.50
2023-04-21T22:17:04.818Z,9.60
2023-04-21T22:19:39.385Z,9.70
2023-04-21T22:22:10.666Z,9.60
2023-04-21T22:24:54.502Z,9.40
2023-04-21T22:27:53.153Z,9.40
2023-04-21T22:30:22.786Z,9.30
2023-04-21T22:33:04.054Z,9.40
2023-04-21T22:35:31.469Z,9.40
2023-04-21T22:38:03.693Z,9.40
2023-04-21T22:40:35.704Z,9.30
2023-04-21T22:43:07.064Z,9.30
2023-04-21T22:45:34.719Z,9.30
2023-04-21T22:48:04.143Z,9.40
2023-04-21T22:50:33.460Z,9.60
2023-04-21T22:53:02.316Z,9.60
2023-04-21T22:55:31.286Z,9.70
2023-04-21T23:00:47.569Z,9.50
2023-04-21T23:03:15.254Z,9.60
2023-04-21T23:05:45.042Z,9.50
2023-04-21T23:08:16.630Z,9.40
2023-04-21T23:10:48.198Z,9.30
2023-04-21T23:13:19.327Z,9.20
2023-04-21T23:16:01.146Z,9.10
2023-04-21T23:18:30.852Z,9.10
2023-04-21T23:21:00.515Z,9.00
2023-04-21T23:23:33.715Z,9.00
2023-04-21T23:28:46.052Z,9.00
2023-04-21T23:31:57.022Z,9.10
2023-04-21T23:34:28.834Z,9.10
2023-04-21T23:36:55.970Z,9.10
2023-04-21T23:39:54.262Z,9.20
2023-04-21T23:42:21.262Z,9.20
2023-04-21T23:44:49.704Z,9.30
2023-04-21T23:47:22.719Z,9.50
2023-04-21T23:49:50.163Z,9.60
2023-04-21T23:52:17.124Z,9.70
2023-04-21T23:54:49.822Z,9.80
2023-04-21T23:57:19.388Z,9.90
2023-04-21T23:59:46.998Z,9.70
